Time;durP1;ratioP1;P1;durP2;ratioP2;P2;SDS_P1;SDS_P2;PMS_P1;PMS_P2;Temp;Humidity;BMP_temperature;BMP_pressure;BME280_temperature;BME280_humidity;BME280_pressure;Samples;Min_cycle;Max_cycle;Signal;HPM_P1;HPM_P2
2022/07/08 00:02:18;;;;;;;6.55;1.90;;;;;;;15.28;85.61;96886.69;5011720;28;24460;-77
2022/07/08 00:04:44;;;;;;;4.22;1.88;;;;;;;15.27;84.43;96883.25;5027197;28;25009;-77
2022/07/08 00:07:11;;;;;;;8.87;2.60;;;;;;;14.90;83.91;96890.78;5014003;28;24490;-77
2022/07/08 00:09:39;;;;;;;10.48;2.17;;;;;;;15.04;84.11;96889.94;5028042;28;24849;-77
2022/07/08 00:12:06;;;;;;;6.55;2.25;;;;;;;14.77;84.90;96897.72;5014481;28;24436;-77
2022/07/08 00:14:32;;;;;;;7.65;2.28;;;;;;;14.40;85.59;96902.53;5027636;28;24531;-77
2022/07/08 00:17:00;;;;;;;6.27;2.10;;;;;;;14.46;84.37;96896.09;5013967;28;24809;-77
2022/07/08 00:19:26;;;;;;;9.38;2.40;;;;;;;14.39;83.70;96903.47;5026927;28;24439;-77
2022/07/08 00:21:53;;;;;;;7.00;2.40;;;;;;;14.24;84.67;96901.78;5019796;28;24481;-77
2022/07/08 00:24:20;;;;;;;7.95;2.55;;;;;;;14.26;83.90;96900.72;5026730;28;24984;-77
2022/07/08 00:26:46;;;;;;;9.32;2.35;;;;;;;14.39;82.79;96906.06;5019825;28;24439;-77
2022/07/08 00:29:13;;;;;;;6.53;2.40;;;;;;;14.18;84.05;96910.78;5026998;28;24668;-77
2022/07/08 00:31:40;;;;;;;8.43;2.40;;;;;;;14.29;83.09;96904.94;5014401;28;24435;-77
2022/07/08 00:34:08;;;;;;;9.48;2.47;;;;;;;14.38;82.62;96908.75;5023509;28;24443;-77
2022/07/08 00:36:35;;;;;;;8.70;2.23;;;;;;;14.43;80.62;96911.94;5014436;28;24443;-77
2022/07/08 00:39:02;;;;;;;8.40;2.13;;;;;;;14.45;79.50;96916.09;5023830;28;24538;-77
2022/07/08 00:41:28;;;;;;;6.10;2.30;;;;;;;14.45;79.15;96918.72;5020871;28;24539;-77
2022/07/08 00:43:55;;;;;;;7.43;2.30;;;;;;;14.22;80.59;96927.06;5022362;28;24471;-77
2022/07/08 00:46:22;;;;;;;8.95;2.70;;;;;;;14.04;81.62;96928.97;5019509;28;24522;-77
2022/07/08 00:48:48;;;;;;;6.13;2.08;;;;;;;13.88;83.16;96923.81;5020963;28;24531;-77
2022/07/08 00:51:18;;;;;;;7.10;2.60;;;;;;;13.88;81.63;96913.41;5023012;28;24895;-77
2022/07/08 00:53:47;;;;;;;7.53;2.80;;;;;;;13.93;80.61;96923.53;5026356;28;24440;-77
2022/07/08 00:56:15;;;;;;;10.55;2.83;;;;;;;13.72;79.80;96915.19;5022374;28;24442;-76
2022/07/08 00:58:42;;;;;;;7.95;2.50;;;;;;;13.58;79.26;96915.16;5022669;28;24443;-77
2022/07/08 01:01:08;;;;;;;8.50;3.10;;;;;;;13.44;80.62;96921.13;5016065;28;24534;-77
2022/07/08 01:03:35;;;;;;;8.68;2.50;;;;;;;13.40;80.26;96917.03;5025820;28;24459;-77
2022/07/08 01:06:01;;;;;;;10.70;3.00;;;;;;;13.41;79.66;96903.09;5023880;28;25101;-77
2022/07/08 01:08:29;;;;;;;11.50;2.95;;;;;;;13.53;78.71;96915.41;5019226;28;24444;-77
2022/07/08 01:10:56;;;;;;;6.28;2.60;;;;;;;13.34;79.87;96914.75;5018297;28;24443;-77
2022/07/08 01:13:24;;;;;;;10.43;2.72;;;;;;;13.27;80.07;96906.44;5024758;28;24439;-77
2022/07/08 01:15:50;;;;;;;14.48;2.78;;;;;;;13.28;79.13;96903.78;5022850;28;25058;-77
2022/07/08 01:18:22;;;;;;;8.17;2.67;;;;;;;13.17;78.24;96900.06;5016853;28;24449;-77
2022/07/08 01:20:49;;;;;;;9.27;2.70;;;;;;;13.12;77.99;96908.09;5017948;28;24514;-77
2022/07/08 01:23:16;;;;;;;12.27;2.80;;;;;;;13.17;77.51;96906.09;5018213;28;24456;-77
2022/07/08 01:25:43;;;;;;;11.13;2.50;;;;;;;13.09;77.94;96913.50;5021896;28;25019;-77
2022/07/08 01:28:10;;;;;;;7.75;2.80;;;;;;;12.98;78.35;96914.06;5016440;28;24499;-77
2022/07/08 01:30:36;;;;;;;9.15;2.50;;;;;;;13.06;78.09;96916.25;5014245;28;24985;-77
2022/07/08 01:33:03;;;;;;;11.02;2.92;;;;;;;12.99;78.19;96925.31;5021944;28;25012;-77
2022/07/08 01:35:30;;;;;;;10.80;2.83;;;;;;;12.97;78.46;96922.78;5014029;28;24436;-77
2022/07/08 01:37:58;;;;;;;6.00;2.58;;;;;;;13.08;77.90;96930.00;5020559;28;24462;-77
2022/07/08 01:40:24;;;;;;;7.88;2.60;;;;;;;13.00;77.83;96926.97;5019621;28;24440;-77
2022/07/08 01:42:50;;;;;;;6.00;2.28;;;;;;;13.07;77.47;96926.56;5022402;28;24455;-77
2022/07/08 01:45:17;;;;;;;5.40;2.17;;;;;;;13.12;77.19;96933.28;5018772;28;24443;-77
2022/07/08 01:47:43;;;;;;;6.72;2.63;;;;;;;13.07;77.19;96941.34;5013302;28;24520;-77
2022/07/08 01:50:10;;;;;;;7.22;2.42;;;;;;;12.83;78.06;96943.50;5018237;28;24558;-77
2022/07/08 01:52:37;;;;;;;5.22;2.35;;;;;;;12.87;77.88;96941.53;5013019;28;24439;-77
2022/07/08 01:55:06;;;;;;;8.35;2.50;;;;;;;12.83;78.50;96946.94;5018169;28;24443;-77
2022/07/08 01:57:34;;;;;;;8.63;2.60;;;;;;;12.74;78.69;96938.78;5016349;28;24527;-77
2022/07/08 02:00:01;;;;;;;7.82;2.63;;;;;;;12.83;78.37;96946.94;5022580;28;24471;-77
2022/07/08 02:02:27;;;;;;;5.57;2.30;;;;;;;12.62;79.02;96950.66;5023268;28;24487;-77
2022/07/08 02:04:54;;;;;;;9.25;2.45;;;;;;;12.68;78.84;96950.34;5020906;28;24852;-77
2022/07/08 02:07:21;;;;;;;10.02;2.40;;;;;;;12.60;79.23;96953.31;5023592;28;24984;-78
2022/07/08 02:09:47;;;;;;;5.60;2.47;;;;;;;12.51;80.13;96959.00;5019847;28;24447;-77
2022/07/08 02:12:20;;;;;;;8.55;3.08;;;;;;;12.43;80.08;96955.97;5021551;28;25028;-77
2022/07/08 02:14:47;;;;;;;11.25;2.92;;;;;;;12.52;79.92;96962.44;5021373;28;24459;-78
2022/07/08 02:17:14;;;;;;;8.20;2.40;;;;;;;12.46;79.78;96958.41;5022857;28;24451;-77
2022/07/08 02:19:40;;;;;;;6.40;2.15;;;;;;;12.70;78.19;96961.47;5018156;28;24502;-77
2022/07/08 02:22:07;;;;;;;7.43;2.72;;;;;;;12.62;78.75;96962.81;5021965;28;24537;-77
2022/07/08 02:24:34;;;;;;;7.70;2.53;;;;;;;12.55;79.64;96967.47;5015013;28;24945;-77
2022/07/08 02:27:00;;;;;;;6.28;2.58;;;;;;;12.54;79.43;96958.84;5021997;28;24558;-77
2022/07/08 02:29:28;;;;;;;6.40;2.75;;;;;;;12.54;79.12;96956.25;5022462;28;24439;-77
2022/07/08 02:31:55;;;;;;;10.63;2.88;;;;;;;12.62;78.79;96955.84;5023462;28;24440;-77
2022/07/08 02:34:21;;;;;;;11.65;2.60;;;;;;;12.45;79.91;96963.66;5019569;28;24439;-77
2022/07/08 02:36:47;;;;;;;7.85;2.30;;;;;;;12.63;78.58;96959.28;5015999;28;24841;-77
2022/07/08 02:39:14;;;;;;;8.98;3.10;;;;;;;12.43;80.05;96965.53;5020629;28;24870;-77
2022/07/08 02:41:41;;;;;;;6.57;2.40;;;;;;;12.58;80.03;96972.53;5015732;28;24447;-77
2022/07/08 02:44:07;;;;;;;5.97;2.50;;;;;;;12.58;79.76;96972.53;5012316;28;24813;-77
2022/07/08 02:46:36;;;;;;;6.65;2.53;;;;;;;12.75;78.98;96980.28;5015731;28;24442;-77
2022/07/08 02:49:02;;;;;;;8.80;2.30;;;;;;;12.84;77.69;96982.41;5021318;28;24459;-77
2022/07/08 02:51:29;;;;;;;6.88;2.38;;;;;;;12.88;77.45;96990.88;5016132;28;24986;-77
2022/07/08 02:53:56;;;;;;;5.80;2.10;;;;;;;12.75;78.03;96995.88;5012191;28;24429;-77
2022/07/08 02:56:22;;;;;;;8.65;2.33;;;;;;;12.84;77.70;97004.97;5014234;28;24439;-77
2022/07/08 02:58:49;;;;;;;6.70;2.40;;;;;;;12.87;77.46;96996.16;5020602;28;24812;-77
2022/07/08 03:01:15;;;;;;;9.83;2.60;;;;;;;12.57;78.71;97002.03;5017846;28;24443;-77
2022/07/08 03:03:43;;;;;;;6.20;2.42;;;;;;;12.75;77.53;96995.88;5017282;28;24550;-77
2022/07/08 03:06:10;;;;;;;14.30;2.87;;;;;;;12.69;77.75;96991.00;5017433;28;25039;-77
2022/07/08 03:08:36;;;;;;;10.43;2.58;;;;;;;12.73;77.46;96996.88;5024309;28;24498;-77
2022/07/08 03:11:03;;;;;;;7.38;2.40;;;;;;;12.67;77.65;96995.44;5020380;28;24436;-77
2022/07/08 03:13:30;;;;;;;12.70;2.67;;;;;;;12.71;77.52;96999.53;5023637;28;24436;-77
2022/07/08 03:15:57;;;;;;;5.90;2.40;;;;;;;12.98;76.78;97005.09;5024260;28;24441;-77
2022/07/08 03:18:23;;;;;;;4.75;2.10;;;;;;;12.86;76.92;96999.69;5022196;28;24451;-77
2022/07/08 03:20:51;;;;;;;5.32;2.17;;;;;;;12.98;76.62;97005.09;5020566;28;24463;-77
2022/07/08 03:23:18;;;;;;;6.82;2.30;;;;;;;12.88;76.54;97009.09;5013206;28;24850;-77
2022/07/08 03:25:44;;;;;;;5.82;2.00;;;;;;;12.72;77.04;97014.25;5015239;28;24440;-77
2022/07/08 03:28:10;;;;;;;6.10;1.80;;;;;;;12.31;79.56;97013.72;5012276;28;24444;-77
2022/07/08 03:30:37;;;;;;;5.83;2.17;;;;;;;12.06;81.35;97011.50;5014884;28;24447;-77
2022/07/08 03:33:04;;;;;;;11.32;2.53;;;;;;;11.94;82.26;97012.09;5012528;28;25052;-77
2022/07/08 03:35:30;;;;;;;5.30;2.42;;;;;;;11.96;82.46;97012.88;5016783;28;24891;-77
2022/07/08 03:37:58;;;;;;;10.17;2.43;;;;;;;11.97;82.84;97025.75;5013657;28;24863;-77
2022/07/08 03:43:09;;;;;;;7.65;2.65;;;;;;;11.76;84.33;97024.19;5010356;28;24826;-77
2022/07/08 03:45:35;;;;;;;5.97;1.95;;;;;;;11.92;83.93;97027.75;5014774;28;24440;-77
2022/07/08 03:48:03;;;;;;;7.47;2.05;;;;;;;12.20;82.18;97035.06;5017131;28;24447;-77
2022/07/08 03:50:29;;;;;;;6.78;2.13;;;;;;;12.31;82.07;97031.91;5020372;28;24543;-77
2022/07/08 03:52:57;;;;;;;4.68;2.13;;;;;;;12.32;82.05;97033.59;5020034;28;24997;-77
2022/07/08 03:55:25;;;;;;;4.07;1.63;;;;;;;12.49;80.44;97028.38;5024931;28;24982;-77
2022/07/08 03:57:51;;;;;;;4.90;2.10;;;;;;;12.40;80.97;97028.88;5021715;28;24498;-78
2022/07/08 04:00:19;;;;;;;6.38;2.38;;;;;;;12.50;80.25;97029.25;5024302;28;24798;-78
2022/07/08 04:02:45;;;;;;;4.88;1.90;;;;;;;12.38;81.58;97033.28;5022363;28;24806;-78
2022/07/08 04:05:12;;;;;;;6.00;2.30;;;;;;;12.37;81.75;97035.97;5027926;28;24439;-78
2022/07/08 04:07:39;;;;;;;3.33;1.60;;;;;;;12.34;81.60;97031.75;5028933;28;24440;-77
2022/07/08 04:10:08;;;;;;;12.30;2.13;;;;;;;12.54;80.34;97026.41;5029997;28;24825;-78
2022/07/08 04:12:34;;;;;;;8.52;2.08;;;;;;;12.45;80.61;97034.66;5030665;28;24451;-76
2022/07/08 04:15:01;;;;;;;5.88;2.00;;;;;;;12.24;82.85;97034.00;5026881;28;24447;-77
2022/07/08 04:17:27;;;;;;;5.10;1.90;;;;;;;12.30;82.00;97030.22;5031371;28;24436;-76
2022/07/08 04:19:54;;;;;;;5.72;2.15;;;;;;;12.24;82.94;97036.59;5025636;28;24493;-76
2022/07/08 04:22:20;;;;;;;9.75;2.50;;;;;;;12.40;82.16;97033.22;5014745;28;24525;-78
2022/07/08 04:24:47;;;;;;;11.20;2.42;;;;;;;12.28;82.37;97037.28;5012185;28;24456;-77
2022/07/08 04:27:14;;;;;;;7.47;2.20;;;;;;;12.25;82.91;97042.63;5016266;28;24961;-77
2022/07/08 04:29:41;;;;;;;5.25;2.03;;;;;;;12.39;82.42;97040.19;5017414;28;24440;-77
2022/07/08 04:32:08;;;;;;;6.68;2.17;;;;;;;12.34;82.55;97035.19;5020841;28;24466;-77
2022/07/08 04:34:34;;;;;;;3.88;1.60;;;;;;;12.28;83.38;97038.13;5016887;28;24507;-77
2022/07/08 04:37:01;;;;;;;4.10;1.75;;;;;;;12.45;83.18;97036.41;5013491;28;25022;-77
2022/07/08 04:39:27;;;;;;;5.30;1.93;;;;;;;12.44;83.26;97032.16;5019986;28;24487;-77
2022/07/08 04:41:54;;;;;;;7.22;2.45;;;;;;;12.48;82.42;97039.69;5011715;28;24999;-76
2022/07/08 04:44:21;;;;;;;6.72;2.10;;;;;;;12.57;82.02;97034.06;5018379;28;24510;-77
2022/07/08 04:46:48;;;;;;;9.27;2.38;;;;;;;12.63;81.47;97038.09;5022585;28;24436;-77
2022/07/08 04:49:15;;;;;;;5.63;2.13;;;;;;;12.37;82.19;97036.81;5017410;28;24448;-75
2022/07/08 04:51:41;;;;;;;8.00;2.90;;;;;;;12.22;83.95;97051.38;5014718;28;24587;-77
2022/07/08 04:54:08;;;;;;;6.90;2.15;;;;;;;12.45;83.12;97052.84;5018530;28;24432;-76
2022/07/08 04:56:34;;;;;;;5.95;2.22;;;;;;;12.56;82.46;97052.31;5021958;28;24447;-76
2022/07/08 04:59:00;;;;;;;9.45;2.25;;;;;;;12.78;80.91;97049.47;5022233;28;24510;-76
2022/07/08 05:01:28;;;;;;;5.90;2.78;;;;;;;12.75;81.99;97049.63;5014357;28;24985;-76
2022/07/08 05:03:55;;;;;;;6.00;2.13;;;;;;;12.94;81.11;97052.97;5019281;28;24505;-76
2022/07/08 05:06:21;;;;;;;7.57;2.50;;;;;;;12.79;81.04;97056.34;5018474;28;24490;-76
2022/07/08 05:08:49;;;;;;;6.28;2.15;;;;;;;12.70;81.50;97065.47;5019729;28;24463;-77
2022/07/08 05:11:15;;;;;;;6.13;2.30;;;;;;;12.97;82.38;97051.97;5016208;28;24547;-77
2022/07/08 05:13:42;;;;;;;10.23;2.45;;;;;;;13.05;80.36;97061.06;5022109;28;24432;-77
2022/07/08 05:16:08;;;;;;;6.00;2.13;;;;;;;13.21;79.02;97055.88;5015441;28;24447;-76
2022/07/08 05:18:39;;;;;;;5.85;2.13;;;;;;;13.29;78.73;97058.13;5021327;28;24447;-77
2022/07/08 05:21:06;;;;;;;4.72;2.03;;;;;;;13.43;77.42;97058.22;5017692;28;24459;-77
2022/07/08 05:23:32;;;;;;;7.78;2.53;;;;;;;13.26;78.19;97061.72;5019056;28;24550;-75
2022/07/08 05:25:59;;;;;;;7.55;2.53;;;;;;;13.02;79.93;97058.63;5016676;28;24856;-76
2022/07/08 05:28:25;;;;;;;7.22;2.25;;;;;;;12.81;80.49;97052.75;5012281;28;24991;-76
2022/07/08 05:30:52;;;;;;;6.70;2.20;;;;;;;12.76;81.57;97054.75;5021556;28;24494;-75
2022/07/08 05:33:18;;;;;;;6.33;2.37;;;;;;;13.00;80.39;97062.22;5020409;28;24439;-76
2022/07/08 05:35:46;;;;;;;6.25;2.15;;;;;;;12.99;79.68;97060.53;5021527;28;24439;-76
2022/07/08 05:38:12;;;;;;;7.50;2.58;;;;;;;13.01;80.53;97059.50;5020285;28;24448;-75
2022/07/08 05:40:39;;;;;;;6.30;2.28;;;;;;;13.59;81.11;97062.59;5016374;28;24814;-76
2022/07/08 05:43:05;;;;;;;5.30;1.80;;;;;;;13.89;78.47;97062.69;5022307;28;24428;-74
2022/07/08 05:45:32;;;;;;;8.30;2.22;;;;;;;14.08;78.97;97063.31;5015662;28;24486;-76
2022/07/08 05:47:58;;;;;;;6.18;2.10;;;;;;;13.83;75.46;97065.63;5019855;28;24473;-77
2022/07/08 05:50:25;;;;;;;4.63;1.95;;;;;;;14.06;74.33;97070.41;5021931;28;24433;-78
2022/07/08 05:52:53;;;;;;;7.13;1.92;;;;;;;14.14;74.04;97067.38;5012218;28;25001;-76
2022/07/08 05:55:19;;;;;;;5.90;1.77;;;;;;;14.22;73.92;97073.81;5025231;28;25257;-74
2022/07/08 05:57:46;;;;;;;6.93;2.10;;;;;;;14.40;77.22;97065.88;5010557;28;25158;-75
2022/07/08 06:00:14;;;;;;;7.82;2.40;;;;;;;14.66;71.27;97065.25;5024475;28;24435;-74
2022/07/08 06:02:41;;;;;;;6.72;1.80;;;;;;;14.63;70.59;97069.78;5021412;28;24447;-74
2022/07/08 06:05:08;;;;;;;5.50;1.95;;;;;;;14.49;72.09;97071.41;5023374;28;24447;-75
2022/07/08 06:07:34;;;;;;;4.88;1.85;;;;;;;14.86;72.20;97081.47;5019087;28;24818;-75
2022/07/08 06:10:02;;;;;;;6.78;2.03;;;;;;;14.49;71.00;97079.25;5021787;28;24973;-72
2022/07/08 06:12:28;;;;;;;8.20;2.22;;;;;;;14.43;71.00;97078.75;5019610;28;24517;-74
2022/07/08 06:14:55;;;;;;;7.22;2.17;;;;;;;14.17;72.44;97083.66;5020862;28;24435;-73
2022/07/08 06:17:21;;;;;;;7.05;2.00;;;;;;;14.52;71.41;97089.50;5020688;28;24837;-73
2022/07/08 06:19:48;;;;;;;5.57;2.10;;;;;;;14.81;72.60;97086.13;5021171;28;24440;-74
2022/07/08 06:22:14;;;;;;;5.20;2.30;;;;;;;15.11;69.49;97076.47;5020882;28;24439;-75
2022/07/08 06:24:41;;;;;;;6.63;2.17;;;;;;;14.88;70.04;97090.06;5017944;28;24448;-74
2022/07/08 06:27:08;;;;;;;10.18;2.13;;;;;;;15.47;69.75;97085.63;5019034;28;24434;-73
2022/07/08 06:29:35;;;;;;;6.82;2.03;;;;;;;15.73;66.84;97084.88;5020455;28;24443;-72
2022/07/08 06:32:01;;;;;;;7.95;2.00;;;;;;;15.80;68.13;97079.28;5015292;28;24463;-74
2022/07/08 06:34:28;;;;;;;5.72;1.90;;;;;;;15.71;66.11;97084.13;5019935;28;24441;-75
2022/07/08 06:36:54;;;;;;;9.25;2.13;;;;;;;15.49;66.16;97095.03;5025515;28;24427;-75
2022/07/08 06:39:21;;;;;;;8.77;1.87;;;;;;;15.69;66.59;97109.53;5023869;28;24433;-75
2022/07/08 06:41:47;;;;;;;8.02;1.88;;;;;;;16.14;64.35;97102.34;5025353;28;24439;-75
2022/07/08 06:44:15;;;;;;;4.03;1.70;;;;;;;16.28;63.99;97100.59;5023735;28;24464;-74
2022/07/08 06:46:41;;;;;;;4.13;1.60;;;;;;;16.42;64.14;97103.16;5010477;28;24507;-75
2022/07/08 06:49:08;;;;;;;6.68;1.83;;;;;;;16.14;63.00;97096.28;5023533;28;24443;-74
2022/07/08 06:51:34;;;;;;;4.20;1.80;;;;;;;16.26;65.48;97102.47;5024667;28;24438;-75
2022/07/08 06:56:45;;;;;;;7.13;2.22;;;;;;;16.87;63.98;97098.47;5010271;28;24427;-75
2022/07/08 06:59:11;;;;;;;9.52;1.83;;;;;;;17.06;66.12;97096.31;5022379;28;24440;-75
2022/07/08 07:01:39;;;;;;;6.17;1.97;;;;;;;17.10;59.16;97100.41;5029224;28;24432;-75
2022/07/08 07:04:06;;;;;;;8.30;1.92;;;;;;;16.75;59.64;97110.59;5021432;28;24452;-75
2022/07/08 07:06:32;;;;;;;11.07;2.15;;;;;;;16.49;60.47;97114.91;5029120;28;24443;-74
2022/07/08 07:08:58;;;;;;;6.63;1.75;;;;;;;16.37;62.00;97113.09;5021203;28;24854;-74
2022/07/08 07:11:25;;;;;;;4.78;1.70;;;;;;;16.19;60.75;97108.09;5021302;28;24791;-74
2022/07/08 07:13:51;;;;;;;6.25;1.50;;;;;;;15.61;59.07;97111.75;5021138;28;24498;-75
2022/07/08 07:16:18;;;;;;;6.27;2.00;;;;;;;15.59;63.55;97112.75;5028337;28;24895;-74
2022/07/08 07:18:46;;;;;;;4.95;1.65;;;;;;;15.81;61.66;97115.75;5020737;28;25023;-75
2022/07/08 07:21:12;;;;;;;9.07;1.95;;;;;;;15.85;61.83;97119.84;5027976;28;24782;-75
2022/07/08 07:23:39;;;;;;;7.80;1.80;;;;;;;15.92;60.65;97117.69;5025047;28;24494;-74
2022/07/08 07:26:05;;;;;;;4.55;1.63;;;;;;;15.92;59.31;97125.53;5026595;28;24443;-74
2022/07/08 07:28:32;;;;;;;6.93;1.75;;;;;;;16.08;63.20;97128.00;5021361;28;24442;-75
2022/07/08 07:30:59;;;;;;;7.43;2.10;;;;;;;16.37;61.83;97115.69;5025627;28;24428;-75
2022/07/08 07:33:25;;;;;;;9.25;2.03;;;;;;;16.11;60.27;97133.88;5022491;28;24486;-75
2022/07/08 07:35:53;;;;;;;7.63;2.10;;;;;;;15.85;60.85;97125.06;5024344;28;24511;-75
2022/07/08 07:38:20;;;;;;;6.68;1.95;;;;;;;15.69;62.32;97130.41;5023319;28;24439;-75
2022/07/08 07:40:46;;;;;;;7.47;1.98;;;;;;;15.63;63.82;97125.53;5023390;28;24817;-76
2022/07/08 07:43:12;;;;;;;5.25;1.90;;;;;;;15.87;62.29;97125.81;5024731;28;24434;-76
2022/07/08 07:45:39;;;;;;;4.33;1.73;;;;;;;16.25;63.71;97127.78;5023005;28;24508;-75
2022/07/08 07:48:06;;;;;;;4.68;1.75;;;;;;;16.40;61.37;97118.13;5016015;28;24432;-75
2022/07/08 07:50:32;;;;;;;7.43;2.08;;;;;;;16.78;61.82;97127.88;5021917;28;24483;-76
2022/07/08 07:53:00;;;;;;;13.52;2.13;;;;;;;17.17;60.58;97127.84;5024035;28;24490;-76
2022/07/08 07:55:26;;;;;;;4.75;1.67;;;;;;;16.86;58.52;97136.88;5021393;28;24429;-76
2022/07/08 07:57:53;;;;;;;5.50;2.03;;;;;;;16.34;58.54;97123.72;5023786;28;24439;-76
2022/07/08 08:00:20;;;;;;;4.95;1.45;;;;;;;17.05;58.22;97127.81;5021387;28;24436;-76
2022/07/08 08:02:46;;;;;;;6.95;2.05;;;;;;;17.33;60.57;97130.25;5023869;28;24440;-76
2022/07/08 08:05:13;;;;;;;6.80;1.63;;;;;;;17.46;56.01;97126.78;5023516;28;24555;-76
2022/07/08 08:07:41;;;;;;;5.40;1.90;;;;;;;17.43;57.11;97125.22;5009736;28;24431;-76
2022/07/08 08:10:11;;;;;;;4.23;1.70;;;;;;;16.86;57.52;97130.81;5023900;28;24798;-76
2022/07/08 08:12:37;;;;;;;11.00;2.17;;;;;;;16.61;58.40;97132.44;5023507;28;24981;-76
2022/07/08 08:15:04;;;;;;;9.25;2.33;;;;;;;16.25;58.24;97137.41;5024127;28;24786;-76
2022/07/08 08:17:36;;;;;;;11.07;2.22;;;;;;;15.71;58.71;97128.53;5022272;28;24432;-76
2022/07/08 08:20:02;;;;;;;5.25;1.92;;;;;;;15.69;60.18;97130.41;5024733;28;24440;-76
2022/07/08 08:22:29;;;;;;;6.53;2.13;;;;;;;15.33;59.77;97132.63;5021981;28;24440;-76
2022/07/08 08:24:55;;;;;;;7.65;2.20;;;;;;;15.38;60.61;97135.78;5025178;28;24511;-76
2022/07/08 08:27:23;;;;;;;3.63;1.73;;;;;;;15.33;61.94;97135.22;5020955;28;24503;-76
2022/07/08 08:29:50;;;;;;;11.73;2.40;;;;;;;15.63;59.20;97133.34;5026291;28;24822;-75
2022/07/08 08:32:16;;;;;;;7.65;2.20;;;;;;;16.12;58.16;97132.94;5020276;28;24506;-76
2022/07/08 08:34:42;;;;;;;4.65;1.70;;;;;;;16.03;58.52;97136.16;5022057;28;24857;-76
2022/07/08 08:37:09;;;;;;;5.07;1.77;;;;;;;15.77;58.10;97129.09;5020106;28;24436;-76
2022/07/08 08:39:35;;;;;;;7.07;2.07;;;;;;;15.91;58.44;97134.31;5027283;28;24448;-76
2022/07/08 08:42:02;;;;;;;4.50;1.58;;;;;;;16.60;59.25;97133.34;5019717;28;24834;-76
2022/07/08 08:44:30;;;;;;;5.90;1.58;;;;;;;17.51;59.37;97119.47;5026907;28;24456;-76
2022/07/08 08:46:57;;;;;;;4.50;1.88;;;;;;;18.23;53.77;97111.78;5019610;28;24954;-76
2022/07/08 08:49:24;;;;;;;6.15;1.95;;;;;;;18.77;55.56;97111.34;5026401;28;24443;-76
2022/07/08 08:51:51;;;;;;;6.03;1.95;;;;;;;18.12;51.90;97110.75;5019290;28;24491;-76
2022/07/08 08:54:18;;;;;;;5.00;1.67;;;;;;;18.12;51.12;97113.38;5026546;28;24435;-76
2022/07/08 08:56:46;;;;;;;10.52;2.22;;;;;;;17.51;53.01;97114.22;5019168;28;24425;-76
2022/07/08 08:59:15;;;;;;;3.53;1.52;;;;;;;17.64;53.91;97115.88;5019044;28;24813;-76
2022/07/08 09:01:42;;;;;;;5.45;2.05;;;;;;;18.34;55.35;97109.22;5016235;28;24436;-76
2022/07/08 09:04:10;;;;;;;6.68;2.00;;;;;;;18.56;51.05;97108.47;5018452;28;24432;-76
2022/07/08 09:06:36;;;;;;;4.15;1.73;;;;;;;18.73;50.02;97105.47;5019193;28;24436;-76
2022/07/08 09:09:03;;;;;;;4.00;1.77;;;;;;;18.53;49.29;97103.44;5017698;28;24444;-76
2022/07/08 09:11:31;;;;;;;3.70;1.73;;;;;;;18.45;53.03;97105.81;5020582;28;24436;-76
2022/07/08 09:14:17;;;;;;;6.40;1.73;;;;;;;18.58;50.21;97109.22;5022735;28;24893;-76
2022/07/08 09:17:07;;;;;;;3.92;1.60;;;;;;;19.29;48.48;97102.16;5016117;28;24447;-75
2022/07/08 09:19:34;;;;;;;5.68;1.73;;;;;;;19.09;51.60;97104.47;5019073;28;24539;-76
2022/07/08 09:22:00;;;;;;;2.90;1.45;;;;;;;19.20;48.81;97092.34;5011180;28;24487;-76
2022/07/08 09:24:27;;;;;;;7.97;1.47;;;;;;;18.87;49.77;97091.31;5024474;28;24435;-76
2022/07/08 09:26:54;;;;;;;7.63;1.88;;;;;;;18.13;50.30;97085.38;5024019;28;24436;-76
2022/07/08 09:29:21;;;;;;;7.25;1.85;;;;;;;18.95;53.13;97088.97;5021014;28;24435;-76
2022/07/08 09:31:49;;;;;;;3.90;1.60;;;;;;;19.00;48.07;97081.56;5023229;28;24432;-76
2022/07/08 09:34:21;;;;;;;3.67;1.53;;;;;;;18.70;48.79;97095.19;5011113;28;24439;-76
2022/07/08 09:36:49;;;;;;;5.88;1.70;;;;;;;19.13;47.29;97099.00;5023963;28;24432;-76
2022/07/08 09:39:25;;;;;;;3.43;1.47;;;;;;;19.18;46.45;97105.59;5021716;28;24467;-76
2022/07/08 09:41:52;;;;;;;4.07;1.70;;;;;;;18.85;46.30;97103.72;5023088;28;24520;-76
2022/07/08 09:44:22;;;;;;;3.35;1.38;;;;;;;18.45;47.53;97105.81;5026495;28;24486;-76
2022/07/08 09:46:50;;;;;;;5.28;1.70;;;;;;;19.01;48.25;97098.97;5023027;28;24494;-76
2022/07/08 09:49:30;;;;;;;4.13;1.70;;;;;;;18.86;49.49;97102.75;5021322;28;24490;-76
2022/07/08 09:51:57;;;;;;;4.65;1.58;;;;;;;19.80;47.94;97099.94;5024038;28;24424;-76
2022/07/08 09:54:25;;;;;;;5.85;1.95;;;;;;;19.16;46.63;97104.84;5020173;28;24532;-76
2022/07/08 09:57:02;;;;;;;3.63;1.60;;;;;;;18.22;47.82;97110.09;5022518;28;25031;-76
2022/07/08 09:59:29;;;;;;;6.40;1.80;;;;;;;18.77;47.71;97106.94;5025028;23;24483;-73
2022/07/08 10:01:57;;;;;;;5.33;1.87;;;;;;;19.03;45.93;97110.22;5004211;28;24993;-73
2022/07/08 10:04:24;;;;;;;4.60;1.77;;;;;;;19.31;45.15;97110.72;5004360;28;24989;-73
2022/07/08 10:06:51;;;;;;;5.15;1.45;;;;;;;18.84;46.24;97110.75;5002317;28;24499;-73
2022/07/08 10:09:18;;;;;;;5.70;1.70;;;;;;;19.84;51.44;97111.03;5005497;28;24798;-73
2022/07/08 10:11:45;;;;;;;4.05;1.50;;;;;;;20.37;47.48;97108.53;5010059;28;24486;-73
2022/07/08 10:14:11;;;;;;;3.37;1.67;;;;;;;20.43;46.09;97100.16;5005978;28;24436;-73
2022/07/08 10:16:40;;;;;;;5.10;1.33;;;;;;;20.59;46.79;97104.19;5008294;28;24440;-73
2022/07/08 10:19:13;;;;;;;5.15;1.58;;;;;;;20.27;46.13;97105.78;5005509;28;24432;-73
2022/07/08 10:21:42;;;;;;;4.80;1.45;;;;;;;20.34;51.78;97106.13;5010187;28;24431;-74
2022/07/08 10:24:14;;;;;;;6.82;1.90;;;;;;;20.66;47.97;97105.34;5005803;28;24429;-74
2022/07/08 10:26:41;;;;;;;5.63;1.50;;;;;;;19.63;45.95;97107.44;5001533;28;24448;-74
2022/07/08 10:29:09;;;;;;;3.88;1.50;;;;;;;19.23;45.60;97113.94;5005686;28;24429;-74
2022/07/08 10:31:44;;;;;;;3.67;1.40;;;;;;;19.64;44.75;97112.56;5008469;28;24435;-74
2022/07/08 10:34:14;;;;;;;7.63;1.60;;;;;;;19.64;44.31;97106.50;5006213;28;24425;-74
2022/07/08 10:36:48;;;;;;;6.55;1.48;;;;;;;19.92;50.72;97107.78;5008526;28;24803;-74
2022/07/08 10:39:15;;;;;;;5.75;1.92;;;;;;;20.18;44.89;97110.97;5006101;28;25017;-74
2022/07/08 10:41:55;;;;;;;6.00;1.80;;;;;;;20.13;45.22;97110.50;5009410;28;24435;-74
2022/07/08 10:44:48;;;;;;;4.60;1.63;;;;;;;20.56;46.79;97109.69;5005939;28;24440;-74
2022/07/08 10:47:16;;;;;;;8.85;1.60;;;;;;;20.91;46.86;97115.53;5009480;28;24436;-74
2022/07/08 10:49:45;;;;;;;5.78;1.63;;;;;;;20.68;43.21;97121.84;4998245;28;24444;-74
2022/07/08 10:52:12;;;;;;;4.20;1.58;;;;;;;21.07;48.02;97109.81;5009717;28;24830;-75
2022/07/08 10:54:39;;;;;;;7.35;1.80;;;;;;;21.35;46.23;97121.50;5005581;28;24440;-74
2022/07/08 10:57:14;;;;;;;6.93;2.20;;;;;;;20.54;43.99;97126.47;5009647;28;24440;-74
2022/07/08 10:59:41;;;;;;;4.57;1.60;;;;;;;20.19;44.52;97118.75;5006377;28;24498;-74
2022/07/08 11:02:10;;;;;;;9.52;1.70;;;;;;;20.08;47.77;97124.03;5009527;28;24436;-74
2022/07/08 11:04:51;;;;;;;5.13;1.85;;;;;;;19.99;45.51;97111.63;5006555;28;24441;-74
2022/07/08 11:07:25;;;;;;;4.47;1.58;;;;;;;20.12;45.47;97116.72;5003214;28;24532;-74
2022/07/08 11:09:53;;;;;;;4.43;1.80;;;;;;;20.40;46.38;97115.34;5008748;28;24483;-74
2022/07/08 11:12:24;;;;;;;5.53;1.43;;;;;;;20.82;47.88;97104.91;5003217;28;24482;-75
2022/07/08 11:14:52;;;;;;;5.07;1.77;;;;;;;20.73;44.30;97111.78;5008293;28;24433;-74
2022/07/08 11:17:19;;;;;;;4.55;1.70;;;;;;;20.10;45.16;97114.22;5003176;28;24467;-74
2022/07/08 11:19:47;;;;;;;5.15;1.65;;;;;;;19.89;44.79;97108.88;5007128;28;24981;-74
2022/07/08 11:22:15;;;;;;;6.82;1.70;;;;;;;19.74;48.66;97107.44;5005621;28;24602;-74
2022/07/08 11:24:44;;;;;;;6.78;1.52;;;;;;;20.12;45.47;97106.19;5013092;28;24491;-74
2022/07/08 11:27:11;;;;;;;3.38;1.65;;;;;;;20.17;46.39;97111.91;5007698;28;24479;-74
2022/07/08 11:29:38;;;;;;;3.25;1.25;;;;;;;20.27;46.08;97126.84;5010321;28;24436;-74
2022/07/08 11:32:06;;;;;;;4.35;1.70;;;;;;;19.88;45.55;97112.47;5007890;28;24818;-74
2022/07/08 11:34:32;;;;;;;4.97;1.77;;;;;;;19.44;44.39;97106.22;5010697;28;24434;-74
2022/07/08 11:37:00;;;;;;;5.60;1.67;;;;;;;19.68;44.00;97113.19;5008051;28;24428;-74
2022/07/08 11:39:29;;;;;;;5.35;1.70;;;;;;;20.13;45.57;97121.00;5003487;28;24510;-74